Sedgwick Reserve, California Weather observations

Data are for 10 minute period ending at time listed.
 Day   Time   Solar   Ave.   Ave.  Ave.  Vector  Max.   Baro.   Total    
  of    of     Rad.   Air    Rel.  Wind   Wind   Wind  Press.  Precip.   
Year   Day            Temp.  Hum.  Speed  Dir.   Gust                    
2016   (PST)  Kw/m2    F      %     mph   deg.    mph    mb.     in.     
-------------------------------------------------------------------------
 343   21:40   0.00   54.6    97    2.5     8     3.4   982.5    0.00 
 343   21:50   0.00   54.7    97    2.2     4     2.6   982.5    0.00 
 343   22:00   0.00   54.8    98    1.5   350     2.4   982.5    0.00 
 343   22:10   0.00   55.0    98    1.5   356     2.0   982.6    0.00 
 343   22:20   0.00   54.9    98    1.2     0     1.9   982.6    0.00 
 343   22:30   0.00   54.8    98    1.2     5     1.8   982.5    0.01 
 343   22:40   0.00   54.8    98    1.3   343     1.8   982.4    0.00 
 343   22:50   0.00   54.9    98    0.1   330     1.1   982.3    0.00 
 343   23:00   0.00   54.9    98    0.0     0     0.0   982.3    0.00 
 343   23:10   0.00   54.9    98    0.0     0     0.0   982.3    0.00 
 343   23:20   0.00   54.9    98    0.0     0     0.0   982.3    0.00 
 343   23:30   0.00   54.8    98    0.0     0     0.0   982.3    0.00 
 343   23:40   0.00   54.8    98    0.0     0     0.0   982.3    0.00 
 343   23:50   0.00   54.9    98    0.0     0     0.0   982.4    0.00 
 344    0:00   0.00   54.9    98    0.0     0     0.0   982.4    0.00 
 344    0:10   0.00   54.9    98    0.0     0     0.0   982.3    0.01 
 344    0:20   0.00   54.9    98    0.0     0     0.0   982.3    0.00 
 344    0:30   0.00   55.0    99    0.4   265     1.5   982.3    0.01 
 344    0:40   0.00   54.8    99    0.0     0     0.0   982.1    0.00 
 344    0:50   0.00   54.7    99    0.0     0     0.0   982.1    0.01 
 344    1:00   0.00   54.8    99    0.0     0     0.0   982.0    0.00 
 344    1:10   0.00   54.8    99    0.5     3     2.1   982.0    0.00 
 344    1:20   0.00   54.8    99    1.9   358     2.5   982.0    0.01 
 344    1:30   0.00   54.8    99    0.9   342     2.3   982.0    0.00 
 344    1:40   0.00   55.0    99    0.5   282     1.0   982.2    0.00 
 344    1:50   0.00   55.0    99    0.0     0     0.0   982.2    0.01 
 344    2:00   0.00   54.9    99    0.6   336     1.2   982.2    0.01 
 344    2:10   0.00   55.1    99    0.3   344     0.9   982.3    0.01 
 344    2:20   0.00   55.1    99    0.5   350     1.4   982.2    0.01 
 344    2:30   0.00   55.2    99    0.9   353     1.2   982.1    0.01 
 344    2:40   0.00   55.1    99    1.2     2     2.0   982.1    0.00 
 344    2:50   0.00   55.1    99    0.3   340     1.7   982.1    0.01 
 344    3:00   0.00   55.2    99    0.1   333     0.7   982.1    0.02 
 344    3:10   0.00   55.3    99    0.1     5     0.9   982.2    0.00 
 344    3:20   0.00   55.2    99    0.2   309     0.9   982.2    0.02 
 344    3:30   0.00   55.3    99    0.0   309     0.3   982.1    0.02 
 344    3:40   0.00   55.2    99    0.2   348     1.3   982.0    0.01 
 344    3:50   0.00   55.2    99    1.5   356     2.2   982.0    0.01 
 344    4:00   0.00   55.1   100    1.7    28     2.3   981.8    0.01 
 344    4:10   0.00   55.0   100    1.0   266     2.4   981.7    0.00 
 344    4:20   0.00   55.0   100    0.7   253     2.1   981.7    0.00 
 344    4:30   0.00   55.2   100    0.2   265     0.9   981.6    0.00 
 344    4:40   0.00   55.1   100    0.3   357     1.2   981.6    0.00 
 344    4:50   0.00   55.0   100    1.7     0     2.0   981.5    0.00 
 344    5:00   0.00   55.2   100    1.3     6     2.0   981.4    0.00 
 344    5:10   0.00   55.2   100    0.8   308     1.7   981.4    0.00 
 344    5:20   0.00   55.3   100    1.7   287     2.3   981.6    0.00 
 344    5:30   0.00   55.1   100    1.3    14     2.0   981.6    0.00 
 344    5:40   0.00   55.1   100    1.3    12     2.4   981.7    0.00 
 344    5:50   0.00   55.1   100    0.7   329     2.0   981.7    0.00 
 344    6:00   0.00   55.1   100    1.2   303     1.6   981.7    0.00 
 344    6:10   0.00   55.1   100    0.6   319     1.6   981.7    0.00 
 344    6:20   0.00   54.9   100    2.4    10     3.7   981.8    0.00 
 344    6:30   0.00   54.7   100    2.0     1     3.9   982.0    0.00 
 344    6:40   0.00   54.8   100    1.2   285     1.9   982.0    0.00 
 344    6:50   0.00   54.8   100    1.9   252     3.2   982.2    0.00 
 344    7:00   0.00   54.9   100    2.3   334     3.2   982.3    0.01 
 344    7:10   0.00   54.7   100    3.9     9     5.5   982.3    0.01 
 344    7:20   0.01   54.8   100    3.0     3     4.5   982.4    0.00 
 344    7:30   0.01   55.2   100    2.3   266     4.4   982.5    0.01 
 344    7:40   0.02   55.3   100    2.7   268     3.7   982.5    0.00 
 344    7:50   0.05   55.7   100    2.5   272     3.6   982.5    0.00 
 344    8:00   0.07   56.1   100    0.9   281     3.0   982.4    0.00 
 344    8:10   0.05   56.4   100    2.5    76     4.3   982.3    0.00 
 344    8:20   0.06   56.2   100    1.1    76     3.1   982.4    0.00 
 344    8:30   0.07   56.2   100    1.8   217     3.1   982.6    0.00 
 344    8:40   0.17   56.5   100    2.8   193     3.9   982.6    0.00 
 344    8:50   0.15   57.3   100    1.7   146     2.8   982.6    0.00 
 344    9:00   0.22   57.6   100    1.9   137     3.4   982.7    0.00 
 344    9:10   0.12   57.5   100    1.1   121     3.2   982.8    0.00 
 344    9:20   0.11   58.0   100    0.2   113     1.7   982.9    0.00 
 344    9:30   0.13   57.8   100    0.5   166     2.5   983.0    0.00 
 344    9:40   0.17   57.3   100    1.6   222     3.0   983.0    0.00 
 344    9:50   0.22   57.9   100    1.2   145     2.6   983.0    0.00 
 344   10:00   0.24   58.5   100    1.7   163     4.5   983.0    0.00 
 344   10:10   0.21   58.1    99    2.4   268     5.7   983.1    0.00 
 344   10:20   0.21   58.5   100    1.6   275     3.5   983.1    0.00 
 344   10:30   0.19   58.8    99    2.7   295     4.5   983.1    0.00 
 344   10:40   0.26   59.1    98    2.4   252     4.8   983.0    0.00 
 344   10:50   0.35   59.5    95    3.4   239     5.5   983.0    0.00 
 344   11:00   0.30   60.1    93    3.2   261     6.6   982.9    0.00 
 344   11:10   0.35   60.4    92    4.4   248     7.8   982.7    0.00 
 344   11:20   0.23   60.5    91    4.8   253     7.3   982.5    0.00 
 344   11:30   0.42   61.2    91    3.6   271     7.7   982.4    0.00 
 344   11:40   0.41   61.8    89    5.6   260     8.3   982.3    0.00 
 344   11:50   0.40   62.3    88    5.2   266     9.9   982.1    0.00 
 344   12:00   0.45   63.2    87    5.0   268     8.5   982.0    0.00 
 344   12:10   0.51   64.2    84    6.7   246    10.5   981.7    0.00 
 344   12:20   0.63   65.2    82    7.3   247    14.5   981.4    0.00 
 344   12:30   0.53   65.7    80    9.7   264    15.9   981.1    0.00 
 344   12:40   0.54   65.3    79    9.8   267    15.6   981.0    0.00 
 344   12:50   0.50   66.0    78    8.5   277    13.4   980.8    0.00 
 344   13:00   0.50   66.6    76    9.0   280    15.9   980.6    0.00 
 344   13:10   0.47   67.0    71    9.7   282    17.2   980.4    0.00 
 344   13:20   0.46   66.9    71   10.4   285    16.6   980.3    0.00 
 344   13:30   0.44   66.8    72    9.0   282    15.9   980.1    0.00 
 344   13:40   0.42   67.8    71    7.8   282    12.5   980.0    0.00 
 344   13:50   0.40   67.6    70   10.7   278    16.8   979.8    0.00 
 344   14:00   0.38   67.4    68   11.4   272    16.2   979.6    0.00 
 344   14:10   0.36   67.9    68    9.7   278    16.3   979.5    0.00 
 344   14:20   0.34   67.7    69   10.2   279    16.8   979.4    0.00 
 344   14:30   0.31   67.9    68    8.5   272    15.3   979.3    0.00 
 344   14:40   0.29   68.3    66    8.0   285    13.1   979.1    0.00 
 344   14:50   0.26   68.2    67    8.9   278    14.0   979.0    0.00 
 344   15:00   0.24   68.0    68    9.4   272    14.5   978.9    0.00 
 344   15:10   0.20   67.5    69   12.0   274    18.0   979.0    0.00 
 344   15:20   0.18   67.0    70   10.2   278    18.0   979.1    0.00 
 344   15:30   0.14   66.7    72   10.0   275    17.2   979.1    0.00 
 344   15:40   0.14   65.8    73   12.8   275    20.1   979.1    0.00 
 344   15:50   0.12   65.9    73    8.7   276    14.0   979.0    0.00 
 344   16:00   0.08   65.4    74    9.3   278    15.5   979.0    0.00 
 344   16:10   0.06   64.7    76    9.7   282    16.5   979.0    0.00 
 344   16:20   0.03   63.9    79    9.2   286    16.7   979.0    0.00 
 344   16:30   0.03   63.2    81    8.8   286    14.6   979.1    0.00 
 344   16:40   0.02   62.7    82    8.4   293    15.3   979.1    0.00 
 344   16:50   0.01   62.2    83    8.9   300    15.1   979.2    0.00 
 344   17:00   0.00   61.8    84    6.8   300    12.5   979.3    0.00 
 344   17:10   0.00   61.3    86    7.8   304    14.2   979.4    0.00 
 344   17:20   0.00   61.0    87    8.3   311    13.9   979.5    0.00 
 344   17:30   0.00   60.8    88    8.9   311    15.1   979.6    0.00 
 344   17:40   0.00   60.6    88    6.8   317    15.3   979.5    0.00 
 344   17:50   0.00   60.4    89    6.6   314    10.2   979.5    0.00 
 344   18:00   0.00   60.2    89    8.2   307    12.4   979.3    0.00 
 344   18:10   0.00   60.0    90    9.7   289    14.2   979.2    0.00 
 344   18:20   0.00   60.1    90   10.6   292    14.7   979.3    0.00 
 344   18:30   0.00   60.0    90    9.2   288    14.6   979.5    0.00 
 344   18:40   0.00   59.8    91    9.3   294    15.1   979.8    0.00 
 344   18:50   0.00   59.6    91   11.5   294    16.5   979.8    0.00 
 344   19:00   0.00   59.0    92   10.0   288    15.3   979.8    0.00 
 344   19:10   0.00   58.6    93   10.2   286    14.1   979.8    0.00 
 344   19:20   0.00   58.4    94    9.3   284    12.4   979.7    0.00 
 344   19:30   0.00   58.2    94    7.9   281    11.0   979.9    0.00 
 344   19:40   0.00   58.1    94    7.8   287    11.4   980.0    0.00 
 344   19:50   0.00   58.6    92    8.4   290    11.0   980.1    0.00 
 344   20:00   0.00   58.5    91    4.7   293     8.1   980.1    0.00 
 344   20:10   0.00   58.0    92    1.1   275     3.6   980.1    0.00 
 344   20:20   0.00   57.4    93    4.5   298     8.5   980.1    0.00 
 344   20:30   0.00   57.9    92    6.7   303     9.5   980.1    0.00 
 344   20:40   0.00   57.1    92    2.7   128     4.5   980.1    0.00 
 344   20:50   0.00   56.0    94    2.9   130     4.7   980.2    0.00 
 344   21:00   0.00   55.6    96    2.8   129     4.5   980.4    0.00 
 344   21:10   0.00   55.2    96    2.0   135     3.2   980.4    0.00 
 344   21:20   0.00   54.8    97    2.0   118     3.4   980.2    0.00 
 344   21:30   0.00   54.9    98    1.1   131     2.6   980.1    0.00 

Return to Sedgwick Reserve graphs page.


Western Regional Climate Center,wrcc@dri.edu